createdAt,value
2018-06-18T00:00:25.794Z,90.00
2018-06-18T00:02:53.534Z,90.00
2018-06-18T00:05:21.318Z,90.10
2018-06-18T00:07:49.224Z,90.10
2018-06-18T00:10:16.947Z,90.00
2018-06-18T00:12:44.684Z,90.10
2018-06-18T00:15:12.407Z,90.20
2018-06-18T00:17:40.138Z,90.30
2018-06-18T00:20:07.893Z,90.20
2018-06-18T00:22:35.676Z,90.30
2018-06-18T00:25:03.499Z,90.40
2018-06-18T00:27:31.290Z,90.50
2018-06-18T00:29:59.068Z,90.50
2018-06-18T00:32:26.868Z,90.60
2018-06-18T00:34:54.631Z,90.70
2018-06-18T00:37:22.376Z,90.70
2018-06-18T00:39:50.147Z,90.60
2018-06-18T00:42:17.870Z,90.80
2018-06-18T00:44:45.629Z,90.80
2018-06-18T00:47:13.369Z,90.90
2018-06-18T00:49:41.094Z,90.90
2018-06-18T00:52:08.897Z,90.80
2018-06-18T00:54:36.779Z,90.80
2018-06-18T00:57:04.751Z,90.80
2018-06-18T00:59:32.483Z,90.80
2018-06-18T01:02:00.276Z,90.80
2018-06-18T01:04:28.122Z,90.80
2018-06-18T01:06:55.892Z,90.80
2018-06-18T01:09:23.599Z,90.80
2018-06-18T01:11:51.326Z,90.80
2018-06-18T01:14:20.712Z,90.80
2018-06-18T01:16:48.512Z,90.90
2018-06-18T01:19:16.277Z,90.90
2018-06-18T01:21:44.129Z,91.00
2018-06-18T01:24:24.448Z,90.90
2018-06-18T01:26:52.169Z,91.00
2018-06-18T01:29:19.983Z,91.00
2018-06-18T01:31:47.765Z,91.00
2018-06-18T01:34:20.964Z,90.90
2018-06-18T01:36:48.795Z,90.90
2018-06-18T01:39:16.540Z,91.00
2018-06-18T01:41:44.306Z,91.10
2018-06-18T01:44:12.327Z,91.10
2018-06-18T01:46:40.219Z,91.10
2018-06-18T01:49:08.016Z,91.00
2018-06-18T01:51:35.796Z,91.10
2018-06-18T01:54:03.608Z,91.10
2018-06-18T01:56:31.367Z,91.20
2018-06-18T01:58:59.153Z,91.10
2018-06-18T02:01:26.905Z,91.10
2018-06-18T02:03:54.685Z,91.10
2018-06-18T02:06:22.493Z,91.00
2018-06-18T02:08:50.267Z,91.00
2018-06-18T02:11:18.127Z,91.10
2018-06-18T02:13:45.895Z,91.00
2018-06-18T02:16:13.722Z,91.20
2018-06-18T02:18:41.474Z,91.30
2018-06-18T02:21:09.259Z,91.30
2018-06-18T02:23:37.030Z,91.30
2018-06-18T02:26:04.814Z,91.40
2018-06-18T02:28:38.147Z,91.50
2018-06-18T02:31:11.477Z,91.50
2018-06-18T02:33:44.869Z,91.50
2018-06-18T02:36:18.294Z,91.70
2018-06-18T02:38:50.982Z,92.00
2018-06-18T02:41:19.041Z,92.00
2018-06-18T02:43:46.789Z,92.00
2018-06-18T02:46:14.575Z,92.00
2018-06-18T02:48:42.334Z,92.00
2018-06-18T02:51:10.103Z,92.00
2018-06-18T02:53:37.839Z,92.00
2018-06-18T02:56:06.520Z,92.00
2018-06-18T02:58:34.276Z,92.40
2018-06-18T03:01:02.007Z,92.70
2018-06-18T03:03:29.784Z,93.10
2018-06-18T03:05:57.545Z,93.30
2018-06-18T03:08:25.338Z,93.40
2018-06-18T03:10:53.110Z,93.50
2018-06-18T03:13:20.946Z,93.80
2018-06-18T03:15:48.721Z,94.20
2018-06-18T03:18:22.089Z,94.50
2018-06-18T03:20:55.529Z,94.80
2018-06-18T03:23:28.822Z,94.90
2018-06-18T03:26:02.279Z,95.10
2018-06-18T03:28:35.533Z,95.20
2018-06-18T03:31:03.445Z,95.30
2018-06-18T03:33:31.278Z,95.50
2018-06-18T03:35:59.040Z,95.40
2018-06-18T03:38:26.789Z,95.50
2018-06-18T03:40:54.557Z,95.40
2018-06-18T03:43:22.300Z,95.50
2018-06-18T03:45:50.065Z,95.60
2018-06-18T03:48:17.827Z,95.90
2018-06-18T03:50:45.574Z,96.00
2018-06-18T03:53:13.300Z,96.20
2018-06-18T03:55:47.293Z,96.30
2018-06-18T03:58:15.055Z,96.50
2018-06-18T04:02:59.155Z,96.50
2018-06-18T04:05:32.470Z,96.50
2018-06-18T04:08:02.739Z,96.90
2018-06-18T04:10:38.383Z,97.10
2018-06-18T04:13:06.428Z,97.40
2018-06-18T04:15:34.220Z,97.40
2018-06-18T04:18:01.977Z,97.60
2018-06-18T04:20:32.547Z,97.80
2018-06-18T04:23:00.311Z,97.90
2018-06-18T04:25:28.102Z,98.10
2018-06-18T04:27:55.850Z,98.10
2018-06-18T04:30:23.667Z,98.10
2018-06-18T04:32:51.443Z,98.20
2018-06-18T04:35:19.200Z,98.10
2018-06-18T04:37:46.983Z,98.00
2018-06-18T04:40:14.751Z,98.30
2018-06-18T04:42:48.295Z,97.80
2018-06-18T04:45:21.731Z,97.80
2018-06-18T04:47:55.093Z,97.50
2018-06-18T04:50:28.448Z,97.20
2018-06-18T04:52:56.302Z,97.00
2018-06-18T04:55:24.055Z,96.80
2018-06-18T04:57:51.931Z,96.60
2018-06-18T05:00:29.252Z,96.30
2018-06-18T05:02:57.035Z,96.20
2018-06-18T05:05:24.769Z,95.80
2018-06-18T05:08:02.209Z,95.90
2018-06-18T05:10:29.982Z,95.70
2018-06-18T05:12:57.884Z,95.70
2018-06-18T05:15:31.826Z,95.70
2018-06-18T05:17:59.601Z,95.70
2018-06-18T05:20:27.416Z,95.70
2018-06-18T05:22:55.104Z,95.70
2018-06-18T05:25:22.903Z,95.70
2018-06-18T05:27:50.669Z,95.90
2018-06-18T05:30:24.337Z,95.90
2018-06-18T05:32:52.106Z,96.00
2018-06-18T05:35:19.961Z,96.10
2018-06-18T05:37:52.395Z,96.10
2018-06-18T05:40:20.244Z,96.30
2018-06-18T05:42:48.030Z,96.50
2018-06-18T05:45:15.876Z,96.70
2018-06-18T12:10:06.082Z,81.60
2018-06-18T12:12:33.978Z,79.40
2018-06-18T12:15:02.017Z,77.20
2018-06-18T12:17:30.099Z,77.40
2018-06-18T12:19:57.966Z,75.30
2018-06-18T12:22:25.891Z,74.50
2018-06-18T12:24:54.035Z,75.30
2018-06-18T12:27:25.213Z,76.10
2018-06-18T12:29:53.335Z,76.80
2018-06-18T12:32:21.411Z,78.50
2018-06-18T12:34:49.864Z,79.20
2018-06-18T12:37:17.791Z,81.00
2018-06-18T12:39:47.464Z,79.70
2018-06-18T12:42:15.688Z,80.40
2018-06-18T12:44:50.542Z,82.80
2018-06-18T12:47:24.041Z,82.60
2018-06-18T12:49:57.533Z,83.20
2018-06-18T12:52:31.418Z,83.50
2018-06-18T12:55:04.921Z,85.10
2018-06-18T12:57:32.827Z,84.70
2018-06-18T13:00:00.851Z,85.30
2018-06-18T13:02:32.849Z,85.00
2018-06-18T13:05:01.297Z,86.10
2018-06-18T13:07:29.372Z,86.10
2018-06-18T13:09:58.060Z,86.20
2018-06-18T13:12:26.636Z,86.70
2018-06-18T13:14:55.887Z,87.70
2018-06-18T13:17:24.092Z,88.50
2018-06-18T13:19:52.120Z,89.40
2018-06-18T13:22:20.045Z,89.70
2018-06-18T13:24:48.349Z,89.10
2018-06-18T13:27:16.229Z,88.20
2018-06-18T13:29:44.574Z,88.80
2018-06-18T13:32:12.974Z,88.00
2018-06-18T13:34:41.211Z,87.80
2018-06-18T13:37:14.875Z,87.40
2018-06-18T13:39:48.275Z,86.70
2018-06-18T13:42:22.252Z,85.80
2018-06-18T13:44:56.197Z,84.70
2018-06-18T13:47:30.078Z,83.60
2018-06-18T13:49:58.305Z,84.00
2018-06-18T13:52:26.594Z,84.60
2018-06-18T13:54:55.060Z,83.00
2018-06-18T13:57:23.751Z,83.10
2018-06-18T13:59:52.032Z,81.70
2018-06-18T14:02:20.298Z,81.60
2018-06-18T14:04:48.430Z,82.00
2018-06-18T14:07:16.862Z,82.60
2018-06-18T14:09:44.935Z,83.50
2018-06-18T14:12:13.130Z,83.70
2018-06-18T14:14:41.520Z,83.50
2018-06-18T14:17:09.750Z,83.60
2018-06-18T14:19:43.264Z,83.20
2018-06-18T14:22:11.427Z,83.40
2018-06-18T14:24:40.789Z,83.30
2018-06-18T14:27:08.972Z,83.20
2018-06-18T14:31:44.239Z,82.60
2018-06-18T14:34:17.824Z,81.60
2018-06-18T14:36:51.551Z,79.80
2018-06-18T14:39:25.278Z,78.40
2018-06-18T14:41:53.640Z,76.90
2018-06-18T14:44:22.033Z,75.80
2018-06-18T14:46:49.952Z,73.70
2018-06-18T14:49:18.391Z,73.60
2018-06-18T14:51:46.650Z,73.30
2018-06-18T14:54:14.609Z,71.30
2018-06-18T14:56:42.580Z,71.30
2018-06-18T14:59:21.372Z,71.70
2018-06-18T15:01:49.285Z,71.40
2018-06-18T15:04:17.625Z,68.30
2018-06-18T15:06:45.905Z,65.80
2018-06-18T15:09:13.993Z,67.10
2018-06-18T15:11:42.571Z,67.00
2018-06-18T15:14:10.742Z,67.70
2018-06-18T15:16:38.801Z,70.50
2018-06-18T15:19:07.113Z,70.60
2018-06-18T15:21:38.027Z,70.30
2018-06-18T15:24:09.971Z,68.60
2018-06-18T15:26:38.279Z,68.40
2018-06-18T15:29:06.359Z,65.10
2018-06-18T15:31:34.500Z,63.90
2018-06-18T15:34:02.643Z,64.20
2018-06-18T15:36:30.545Z,63.80
2018-06-18T15:38:58.827Z,65.40
2018-06-18T15:41:26.732Z,68.30
2018-06-18T15:43:56.157Z,67.00
2018-06-18T15:46:25.891Z,68.90
2018-06-18T15:48:54.193Z,71.20
2018-06-18T15:51:22.469Z,69.10
2018-06-18T15:53:50.499Z,70.60
2018-06-18T15:58:46.463Z,70.20
2018-06-18T16:01:14.777Z,71.60
2018-06-18T16:03:42.695Z,71.30
2018-06-18T16:06:11.161Z,70.10
2018-06-18T16:08:39.178Z,70.90
2018-06-18T16:11:07.067Z,71.50
2018-06-18T16:13:35.303Z,72.30
2018-06-18T16:16:03.219Z,72.70
2018-06-18T16:18:31.421Z,72.90
2018-06-18T16:20:59.561Z,70.70
2018-06-18T16:23:29.085Z,68.80
2018-06-18T16:25:57.508Z,70.00
2018-06-18T16:28:25.533Z,70.70
2018-06-18T16:30:54.046Z,70.80
2018-06-18T16:33:22.538Z,71.60
2018-06-18T16:35:50.419Z,70.60
2018-06-18T16:38:18.323Z,70.10
2018-06-18T16:40:46.250Z,70.50
2018-06-18T16:43:14.216Z,71.00
2018-06-18T16:45:42.136Z,70.10
2018-06-18T16:48:10.329Z,70.20
2018-06-18T16:50:38.281Z,70.60
2018-06-18T16:53:06.878Z,68.20
2018-06-18T16:55:34.894Z,69.70
2018-06-18T16:58:04.058Z,71.80
2018-06-18T17:00:32.211Z,73.70
2018-06-18T17:03:00.255Z,74.10
2018-06-18T17:05:28.252Z,73.90
2018-06-18T17:07:56.534Z,74.20
2018-06-18T17:10:24.902Z,74.30
2018-06-18T17:12:53.497Z,74.30
2018-06-18T17:15:21.451Z,74.90
2018-06-18T17:17:50.033Z,75.90
2018-06-18T17:20:18.332Z,75.20
2018-06-18T17:22:46.660Z,71.90
2018-06-18T17:25:14.720Z,68.60
2018-06-18T17:27:42.751Z,67.60
2018-06-18T17:30:11.162Z,69.90
2018-06-18T17:32:39.290Z,71.00
2018-06-18T17:35:07.411Z,74.40
2018-06-18T17:37:35.774Z,75.70
2018-06-18T17:40:04.054Z,77.20
2018-06-18T17:42:32.059Z,78.30
2018-06-18T17:45:00.087Z,79.00
2018-06-18T17:47:28.173Z,79.70
2018-06-18T17:49:56.283Z,80.10
2018-06-18T17:52:24.485Z,80.30
2018-06-18T17:54:52.954Z,80.80
2018-06-18T17:57:21.246Z,80.70
2018-06-18T17:59:52.184Z,80.80
2018-06-18T18:02:20.441Z,81.40
2018-06-18T18:04:48.738Z,81.00
2018-06-18T18:07:17.008Z,80.10
2018-06-18T18:09:45.269Z,78.20
2018-06-18T18:12:13.562Z,77.70
2018-06-18T18:14:41.579Z,78.10
2018-06-18T18:17:09.918Z,78.00
2018-06-18T18:19:38.022Z,79.00
2018-06-18T18:22:06.013Z,79.80
2018-06-18T18:24:34.112Z,79.30
2018-06-18T18:27:02.158Z,77.10
2018-06-18T18:29:30.310Z,77.30
2018-06-18T18:31:58.530Z,78.60
2018-06-18T18:34:26.623Z,80.30
2018-06-18T18:36:55.661Z,80.80
2018-06-18T18:39:23.821Z,81.10
2018-06-18T18:41:51.842Z,82.10
2018-06-18T18:44:19.762Z,82.20
2018-06-18T18:46:47.961Z,82.60
2018-06-18T18:49:16.275Z,82.70
2018-06-18T18:51:45.010Z,83.20
2018-06-18T18:54:24.180Z,83.30
2018-06-18T18:57:03.551Z,83.60
2018-06-18T18:59:32.853Z,83.50
2018-06-18T19:04:35.796Z,84.40
2018-06-18T19:07:04.086Z,83.90
2018-06-18T19:09:38.171Z,84.10
2018-06-18T19:12:06.447Z,84.30
2018-06-18T19:14:34.423Z,84.50
2018-06-18T19:17:02.332Z,84.90
2018-06-18T19:19:34.908Z,85.30
2018-06-18T19:22:02.922Z,85.60
2018-06-18T19:24:32.344Z,85.70
2018-06-18T19:27:00.538Z,85.90
2018-06-18T19:29:28.752Z,86.30
2018-06-18T19:31:56.654Z,86.70
2018-06-18T19:34:26.896Z,87.20
2018-06-18T19:36:56.345Z,87.10
2018-06-18T19:39:28.081Z,87.40
2018-06-18T19:41:56.332Z,87.30
2018-06-18T19:44:24.495Z,87.50
2018-06-18T19:48:00.084Z,87.50
2018-06-18T19:50:28.323Z,88.10
2018-06-18T19:52:56.548Z,88.30
2018-06-18T19:55:30.492Z,88.50
2018-06-18T19:57:58.434Z,89.00
2018-06-18T20:00:32.327Z,88.80
2018-06-18T20:03:00.333Z,89.20
2018-06-18T20:05:28.646Z,89.80
2018-06-18T20:08:01.381Z,89.80
2018-06-18T20:10:29.499Z,90.20
2018-06-18T20:12:57.760Z,90.30
2018-06-18T20:15:25.883Z,90.40
2018-06-18T20:17:53.980Z,90.50
2018-06-18T20:20:22.156Z,90.60
2018-06-18T20:22:50.296Z,90.50
2018-06-18T20:25:23.570Z,90.60
2018-06-18T20:27:51.456Z,90.50
2018-06-18T20:32:48.873Z,90.90
2018-06-18T20:35:26.392Z,90.90
2018-06-18T20:37:54.316Z,90.90
2018-06-18T20:40:22.266Z,91.00
2018-06-18T20:42:50.631Z,91.20
2018-06-18T20:45:18.671Z,91.40
2018-06-18T20:47:46.593Z,91.70
2018-06-18T20:50:14.824Z,91.70
2018-06-18T20:52:49.574Z,91.40
2018-06-18T20:57:46.360Z,91.60
2018-06-18T21:00:14.545Z,91.70
2018-06-18T21:02:42.390Z,91.60
2018-06-18T21:05:10.285Z,91.80
2018-06-18T21:07:38.186Z,91.80
2018-06-18T21:12:34.133Z,91.70
2018-06-18T21:15:02.213Z,91.70
2018-06-18T21:17:30.014Z,91.70
2018-06-18T21:19:58.324Z,92.20
2018-06-18T21:22:26.049Z,91.80
2018-06-18T21:24:54.299Z,91.50
2018-06-18T21:27:22.077Z,91.30
2018-06-18T21:29:49.972Z,91.10
2018-06-18T21:32:17.940Z,91.10
2018-06-18T21:34:45.686Z,91.00
2018-06-18T21:37:13.805Z,91.00
2018-06-18T21:39:41.593Z,91.00
2018-06-18T21:42:09.481Z,91.30
2018-06-18T21:44:45.164Z,91.10
2018-06-18T21:47:13.275Z,91.30
2018-06-18T21:49:41.320Z,91.50
2018-06-18T21:52:09.186Z,91.70
2018-06-18T21:54:41.276Z,91.80
2018-06-18T21:57:10.405Z,91.90
2018-06-18T21:59:38.683Z,92.10
2018-06-18T22:02:06.736Z,92.10
2018-06-18T22:04:34.830Z,92.40
2018-06-18T22:07:02.753Z,92.40
2018-06-18T22:09:30.649Z,92.40
2018-06-18T22:11:58.743Z,92.60
2018-06-18T22:14:26.796Z,92.90
2018-06-18T22:16:54.852Z,92.90
2018-06-18T22:19:22.706Z,93.00
2018-06-18T22:21:50.667Z,93.00
2018-06-18T22:24:18.479Z,93.40
2018-06-18T22:29:15.070Z,93.30
2018-06-18T22:31:42.978Z,93.50
2018-06-18T22:34:10.867Z,93.50
2018-06-18T22:36:39.019Z,93.50
2018-06-18T22:41:35.898Z,93.90
2018-06-18T22:44:03.978Z,94.10
2018-06-18T22:46:31.765Z,94.10
2018-06-18T22:48:59.769Z,94.40
2018-06-18T22:51:27.611Z,94.40
2018-06-18T22:53:55.498Z,94.70
2018-06-18T22:56:23.225Z,94.60
2018-06-18T22:58:54.508Z,94.80
2018-06-18T23:01:23.783Z,94.80
2018-06-18T23:03:52.004Z,94.90
2018-06-18T23:06:20.340Z,95.20
2018-06-18T23:08:48.459Z,95.50
2018-06-18T23:11:16.511Z,95.40
2018-06-18T23:13:44.505Z,95.50
2018-06-18T23:18:40.468Z,95.70
2018-06-18T23:21:08.634Z,95.90
2018-06-18T23:23:36.823Z,96.40
2018-06-18T23:26:04.935Z,96.50
2018-06-18T23:28:56.538Z,96.50
2018-06-18T23:31:24.578Z,96.80
2018-06-18T23:33:52.691Z,96.90
2018-06-18T23:36:21.345Z,97.00
2018-06-18T23:38:49.774Z,97.30
2018-06-18T23:41:18.678Z,97.40
2018-06-18T23:43:47.012Z,97.60
2018-06-18T23:46:15.449Z,97.80
2018-06-18T23:48:43.822Z,97.70
2018-06-18T23:51:11.838Z,97.80
2018-06-18T23:53:39.858Z,98.20
2018-06-18T23:56:08.001Z,98.30
2018-06-18T23:58:36.105Z,98.30
